Terminal Aerodrome Forecast
Issued by NWS Chicago, IL

Home | Current Version | Previous Version | Text Only | Print | Product List | Glossary On
Versions: 1 2 3 4 5 6 7 8 9 10 11 12 13 14 15 16 17 18 19 20 21 22 23 24 25 26 27 28 29 30 31 32 33 34 35 36
000
FTUS43 KLOT 070901 AAA
TAFRFD
TAF AMD
KRFD 070901Z 0709/0806 36010G16KT 5SM BR VCSH BKN010 OVC030
      TEMPO 0709/0710 3SM -DZ BR OVC008
     FM071300 01012G18KT P6SM SCT015 BKN035
     FM071700 01012G19KT P6SM SCT035 SCT200
     FM072100 01010KT P6SM SCT200
     FM080100 05006KT P6SM FEW250=

USA.gov is the U.S. government's official web portal to all federal, state and local government web resources and services.